Terminal Aerodrome Forecast
Issued by NWS

Home | Current Version | Previous Version | Text Only | Print | Product List | Glossary On
Versions: 1 2 3 4 5 6 7 8 9 10 11 12 13 14 15 16 17 18 19 20 21 22 23 24
000
FTUS43 KAPX 291120
TAFPLN
TAF
KPLN 291120Z 2912/3012 15005KT P6SM OVC250
     FM291600 22007KT P6SM BKN120
     FM291900 23007KT P6SM VCSH SCT040 BKN100
     FM300100 26004KT P6SM BKN040
     FM300400 27004KT 6SM -SHRA OVC025
     FM300700 32004KT 5SM -SHRA OVC007=

USA.gov is the U.S. government's official web portal to all federal, state and local government web resources and services.